Terminal Aerodrome Forecast
Issued by NWS Milwaukee/Sullivan, WI

Home | Current Version | Previous Version | Text Only | Print | Product List | Glossary On
Versions: 1 2 3 4 5 6 7 8 9 10 11 12 13 14 15 16 17 18 19 20 21 22 23 24 25 26
000
FTUS43 KMKX 302340
TAFMSN
TAF
KMSN 302340Z 3100/3124 31006KT P6SM OVC050
     FM310500 33012G21KT P6SM VCSH BKN025 OVC060
     FM310800 34014G28KT P6SM -RASN SCT025 OVC050
     FM311000 34016G29KT P6SM -SN SCT015 BKN025
     FM311400 35021G29KT P6SM BKN030
     FM311800 36020G29KT P6SM BKN035
     FM312200 36016G25KT P6SM SCT035=

USA.gov is the U.S. government's official web portal to all federal, state and local government web resources and services.